Terminal Aerodrome Forecast
Issued by NWS

Home | Current Version | Previous Version | Text Only | Print | Product List | Glossary On
Versions: 1 2 3 4 5 6 7 8 9 10 11 12
000
FTUS45 KRIW 231100
TAFCPR
TAF
KCPR 231120Z 2312/2412 VRB05KT P6SM FEW040
     FM231400 21007KT P6SM SKC
     FM231900 23014G22KT P6SM SCT150
     FM240100 22010KT P6SM SCT150
     FM240800 23015G25KT P6SM FEW150 SCT250=

USA.gov is the U.S. government's official web portal to all federal, state and local government web resources and services.